Time;durP1;ratioP1;P1;durP2;ratioP2;P2;SDS_P1;SDS_P2;PMS_P1;PMS_P2;Temp;Humidity;BMP_temperature;BMP_pressure;BME280_temperature;BME280_humidity;BME280_pressure;Samples;Min_cycle;Max_cycle;Signal;HPM_P1;HPM_P2
2021/08/23 00:01:29;;;;;;;36.35;9.13;;;;;;;;;;5053245;28;20036;-75
2021/08/23 00:03:54;;;;;;;21.88;7.97;;;;;;;;;;5053185;28;20025;-75
2021/08/23 00:06:20;;;;;;;21.42;7.93;;;;;;;;;;5052996;28;20049;-75
2021/08/23 00:08:46;;;;;;;22.80;8.57;;;;;;;;;;5053020;28;20037;-75
2021/08/23 00:11:11;;;;;;;30.88;9.32;;;;;;;;;;5053169;28;20071;-75
2021/08/23 00:13:36;;;;;;;28.00;9.30;;;;;;;;;;5052985;28;20017;-74
2021/08/23 00:16:02;;;;;;;27.90;9.32;;;;;;;;;;5053002;28;20029;-74
2021/08/23 00:18:27;;;;;;;27.42;8.60;;;;;;;;;;5052739;28;20064;-77
2021/08/23 00:20:58;;;;;;;28.95;8.93;;;;;;;;;;5052953;28;20096;-75
2021/08/23 00:23:25;;;;;;;27.15;9.23;;;;;;;;;;5052964;28;20044;-75
2021/08/23 00:25:51;;;;;;;30.15;9.30;;;;;;;;;;5052831;28;20071;-75
2021/08/23 00:28:16;;;;;;;30.15;10.13;;;;;;;;;;5052742;28;20052;-75
2021/08/23 00:30:42;;;;;;;23.30;8.80;;;;;;;;;;5052647;28;20072;-75
2021/08/23 00:33:07;;;;;;;29.60;9.75;;;;;;;;;;5052713;28;20086;-75
2021/08/23 00:35:32;;;;;;;22.45;8.95;;;;;;;;;;5052940;28;20071;-75
2021/08/23 00:37:58;;;;;;;23.40;8.88;;;;;;;;;;5052689;28;20568;-74
2021/08/23 00:40:24;;;;;;;29.30;8.45;;;;;;;;;;5052891;28;20037;-75
2021/08/23 00:42:50;;;;;;;24.40;8.77;;;;;;;;;;5055828;28;20079;-75
2021/08/23 00:45:16;;;;;;;34.72;9.55;;;;;;;;;;5056015;28;20550;-75
2021/08/23 00:47:42;;;;;;;25.58;9.68;;;;;;;;;;5056903;28;20037;-75
2021/08/23 00:50:07;;;;;;;34.92;10.45;;;;;;;;;;5056833;28;20047;-75
2021/08/23 00:52:33;;;;;;;32.13;9.80;;;;;;;;;;5056338;28;20060;-75
2021/08/23 00:54:58;;;;;;;51.33;10.65;;;;;;;;;;5057121;28;20044;-75
2021/08/23 00:57:23;;;;;;;24.55;8.15;;;;;;;;;;5056385;28;20025;-75
2021/08/23 00:59:49;;;;;;;31.98;9.32;;;;;;;;;;5056364;28;20108;-75
2021/08/23 01:02:15;;;;;;;25.05;9.00;;;;;;;;;;5056495;28;20082;-75
2021/08/23 01:04:48;;;;;;;27.58;8.32;;;;;;;;;;5056326;28;20424;-75
2021/08/23 01:07:15;;;;;;;27.70;8.98;;;;;;;;;;5056557;28;20036;-75
2021/08/23 01:09:44;;;;;;;25.65;8.60;;;;;;;;;;5056557;28;20385;-75
2021/08/23 01:12:11;;;;;;;28.17;9.98;;;;;;;;;;5056277;28;20028;-74
2021/08/23 01:14:37;;;;;;;30.85;9.70;;;;;;;;;;5056111;28;20037;-75
2021/08/23 01:17:02;;;;;;;40.38;9.80;;;;;;;;;;5056109;28;20029;-76
2021/08/23 01:19:29;;;;;;;38.20;9.88;;;;;;;;;;5056422;28;20017;-77
2021/08/23 01:21:56;;;;;;;25.95;8.95;;;;;;;;;;5056199;28;20083;-75
2021/08/23 01:24:21;;;;;;;29.77;9.55;;;;;;;;;;5056219;28;20037;-75
2021/08/23 01:26:49;;;;;;;32.13;9.43;;;;;;;;;;5056172;28;20134;-75
2021/08/23 01:29:25;;;;;;;22.98;9.45;;;;;;;;;;5056217;28;20029;-75
2021/08/23 01:31:54;;;;;;;22.58;9.00;;;;;;;;;;5055932;28;20048;-75
2021/08/23 01:34:20;;;;;;;32.30;9.65;;;;;;;;;;5056006;28;20029;-75
2021/08/23 01:36:46;;;;;;;25.35;8.65;;;;;;;;;;5038072;28;20115;-75
2021/08/23 01:39:11;;;;;;;32.97;10.05;;;;;;;;;;5055956;28;20070;-75
2021/08/23 01:41:36;;;;;;;27.17;9.40;;;;;;;;;;5055606;28;20029;-75
2021/08/23 01:44:02;;;;;;;27.05;9.30;;;;;;;;;;5055836;28;20082;-76
2021/08/23 01:46:29;;;;;;;32.75;9.60;;;;;;;;;;5055591;28;20017;-75
2021/08/23 01:48:54;;;;;;;32.13;9.65;;;;;;;;;;5055707;28;20449;-75
2021/08/23 01:51:19;;;;;;;31.38;9.80;;;;;;;;;;5055681;28;20147;-76
2021/08/23 01:53:45;;;;;;;31.80;10.85;;;;;;;;;;5054751;28;20017;-75
2021/08/23 01:56:10;;;;;;;26.33;9.20;;;;;;;;;;5055641;28;20461;-76
2021/08/23 01:58:35;;;;;;;35.00;9.80;;;;;;;;;;5055221;28;20047;-75
2021/08/23 02:01:01;;;;;;;25.58;9.05;;;;;;;;;;5055331;28;20347;-75
2021/08/23 02:03:26;;;;;;;31.63;9.40;;;;;;;;;;5055247;28;20108;-75
2021/08/23 02:05:51;;;;;;;29.88;9.25;;;;;;;;;;5055439;28;20037;-75
2021/08/23 02:08:16;;;;;;;27.00;9.30;;;;;;;;;;5055383;28;20059;-74
2021/08/23 02:10:42;;;;;;;31.48;9.35;;;;;;;;;;5055358;28;20376;-75
2021/08/23 02:13:07;;;;;;;31.27;9.98;;;;;;;;;;5055195;28;20037;-75
2021/08/23 02:15:32;;;;;;;29.17;9.77;;;;;;;;;;5055286;28;20021;-74
2021/08/23 02:17:57;;;;;;;33.88;10.43;;;;;;;;;;5055330;28;20049;-74
2021/08/23 02:20:23;;;;;;;31.95;9.45;;;;;;;;;;5054949;28;20029;-75
2021/08/23 02:22:48;;;;;;;39.00;10.13;;;;;;;;;;5055338;28;20053;-75
2021/08/23 02:25:13;;;;;;;33.45;10.27;;;;;;;;;;5054754;28;20025;-75
2021/08/23 02:27:39;;;;;;;34.10;9.65;;;;;;;;;;5054901;28;20029;-75
2021/08/23 02:30:04;;;;;;;29.48;9.82;;;;;;;;;;5055034;28;20370;-74
2021/08/23 02:32:29;;;;;;;31.30;10.35;;;;;;;;;;5054943;28;20041;-75
2021/08/23 02:34:55;;;;;;;29.25;9.02;;;;;;;;;;5055001;28;20037;-75
2021/08/23 02:37:20;;;;;;;31.55;9.98;;;;;;;;;;5054877;28;20033;-75
2021/08/23 02:39:45;;;;;;;29.38;8.93;;;;;;;;;;5055174;28;20481;-74
2021/08/23 02:42:10;;;;;;;29.80;9.57;;;;;;;;;;5054323;28;20037;-74
2021/08/23 02:44:36;;;;;;;31.27;9.18;;;;;;;;;;5054793;28;20021;-75
2021/08/23 02:47:01;;;;;;;43.88;10.60;;;;;;;;;;5054566;28;20099;-75
2021/08/23 02:49:27;;;;;;;31.23;9.40;;;;;;;;;;5054766;28;20028;-75
2021/08/23 02:51:53;;;;;;;38.45;10.65;;;;;;;;;;5054573;28;20021;-76
2021/08/23 02:54:18;;;;;;;32.85;9.93;;;;;;;;;;5054447;28;20033;-75
2021/08/23 02:56:43;;;;;;;22.27;8.75;;;;;;;;;;5054300;28;20082;-76
2021/08/23 02:59:09;;;;;;;27.27;9.95;;;;;;;;;;5054305;28;20342;-75
2021/08/23 03:01:34;;;;;;;28.77;9.98;;;;;;;;;;5036527;28;20033;-76
2021/08/23 03:03:59;;;;;;;29.10;9.98;;;;;;;;;;5054351;28;20488;-74
2021/08/23 03:06:25;;;;;;;29.33;10.13;;;;;;;;;;5054319;28;20032;-74
2021/08/23 03:08:50;;;;;;;26.48;8.68;;;;;;;;;;5054276;28;20469;-75
2021/08/23 03:11:15;;;;;;;29.80;9.55;;;;;;;;;;5054277;28;20036;-76
2021/08/23 03:13:41;;;;;;;31.10;10.50;;;;;;;;;;5054144;28;20516;-75
2021/08/23 03:16:07;;;;;;;33.65;9.80;;;;;;;;;;5054045;28;20025;-75
2021/08/23 03:18:32;;;;;;;25.50;8.73;;;;;;;;;;5053841;28;20047;-75
2021/08/23 03:20:58;;;;;;;30.98;8.82;;;;;;;;;;5053752;28;20401;-75
2021/08/23 03:23:23;;;;;;;32.42;10.65;;;;;;;;;;5053952;28;20079;-75
2021/08/23 03:25:48;;;;;;;22.08;7.95;;;;;;;;;;5053937;28;20488;-74
2021/08/23 03:28:14;;;;;;;23.60;9.02;;;;;;;;;;5053875;28;20444;-75
2021/08/23 03:30:39;;;;;;;34.50;9.77;;;;;;;;;;5053488;28;20454;-75
2021/08/23 03:33:04;;;;;;;28.40;8.40;;;;;;;;;;5053660;28;20083;-75
2021/08/23 03:35:30;;;;;;;29.38;9.07;;;;;;;;;;5053752;28;20071;-75
2021/08/23 03:37:55;;;;;;;31.50;9.32;;;;;;;;;;5053546;28;20470;-75
2021/08/23 03:40:20;;;;;;;31.38;9.60;;;;;;;;;;5053307;28;20116;-75
2021/08/23 03:42:46;;;;;;;31.55;10.02;;;;;;;;;;5053465;28;20024;-75
2021/08/23 03:45:11;;;;;;;26.20;8.73;;;;;;;;;;5053584;28;20112;-75
2021/08/23 03:47:36;;;;;;;34.42;9.57;;;;;;;;;;5053416;28;20024;-75
2021/08/23 03:50:02;;;;;;;35.25;9.63;;;;;;;;;;5053626;28;20501;-74
2021/08/23 03:52:27;;;;;;;31.48;9.23;;;;;;;;;;5053314;28;20431;-75
2021/08/23 03:54:52;;;;;;;21.58;8.68;;;;;;;;;;5053506;28;20246;-75
2021/08/23 03:57:18;;;;;;;30.10;9.13;;;;;;;;;;5053096;28;20025;-75
2021/08/23 03:59:43;;;;;;;41.75;11.27;;;;;;;;;;5053293;28;20107;-75
2021/08/23 04:02:08;;;;;;;39.47;10.65;;;;;;;;;;5053270;28;20033;-75
2021/08/23 04:04:34;;;;;;;28.23;9.15;;;;;;;;;;5053197;28;20017;-76
2021/08/23 04:06:59;;;;;;;28.50;9.25;;;;;;;;;;5053344;28;20461;-75
2021/08/23 04:09:24;;;;;;;31.42;9.82;;;;;;;;;;5053069;28;20028;-74
2021/08/23 04:11:49;;;;;;;38.15;10.20;;;;;;;;;;5053152;28;20533;-75
2021/08/23 04:14:15;;;;;;;23.42;9.40;;;;;;;;;;5051943;28;20035;-74
2021/08/23 04:16:40;;;;;;;30.85;9.93;;;;;;;;;;5052279;28;20116;-74
2021/08/23 04:19:05;;;;;;;33.35;10.18;;;;;;;;;;5052881;28;20032;-75
2021/08/23 04:21:30;;;;;;;33.17;10.13;;;;;;;;;;5052940;28;20492;-75
2021/08/23 04:23:56;;;;;;;24.70;8.52;;;;;;;;;;5053243;28;20037;-75
2021/08/23 04:26:21;;;;;;;27.95;9.85;;;;;;;;;;5052882;28;20025;-74
2021/08/23 04:28:46;;;;;;;34.17;10.43;;;;;;;;;;5052886;28;20036;-75
2021/08/23 04:31:11;;;;;;;39.47;10.45;;;;;;;;;;5052607;28;20149;-75
2021/08/23 04:33:37;;;;;;;37.58;10.10;;;;;;;;;;5052771;28;20029;-76
2021/08/23 04:36:02;;;;;;;41.92;10.65;;;;;;;;;;5052875;28;20423;-76
2021/08/23 04:38:27;;;;;;;34.60;10.00;;;;;;;;;;5052685;28;20040;-75
2021/08/23 04:40:53;;;;;;;31.17;10.10;;;;;;;;;;5052728;28;20035;-75
2021/08/23 04:43:18;;;;;;;40.78;11.10;;;;;;;;;;5052965;28;20029;-75
2021/08/23 04:45:43;;;;;;;38.25;11.18;;;;;;;;;;5052499;28;20386;-75
2021/08/23 04:48:09;;;;;;;49.08;11.23;;;;;;;;;;5052936;28;20025;-75
2021/08/23 04:50:34;;;;;;;41.30;12.55;;;;;;;;;;5052469;28;20025;-76
2021/08/23 04:52:59;;;;;;;52.70;13.60;;;;;;;;;;5052700;28;20029;-75
2021/08/23 04:55:25;;;;;;;59.63;13.98;;;;;;;;;;5052683;28;20055;-75
2021/08/23 04:57:52;;;;;;;48.78;12.82;;;;;;;;;;5052855;28;20045;-76
2021/08/23 05:00:18;;;;;;;46.65;13.23;;;;;;;;;;5052613;28;20112;-75
2021/08/23 05:02:44;;;;;;;41.17;12.80;;;;;;;;;;5052364;28;20021;-75
2021/08/23 05:05:09;;;;;;;34.22;11.73;;;;;;;;;;5052689;28;20060;-75
2021/08/23 05:07:34;;;;;;;55.92;13.02;;;;;;;;;;5052474;28;20080;-75
2021/08/23 05:10:00;;;;;;;45.22;12.73;;;;;;;;;;5052532;28;20465;-75
2021/08/23 05:12:25;;;;;;;38.30;10.98;;;;;;;;;;5052382;28;20492;-76
2021/08/23 05:14:51;;;;;;;53.40;12.75;;;;;;;;;;5052593;28;20021;-75
2021/08/23 05:17:17;;;;;;;35.90;11.73;;;;;;;;;;5052093;28;20437;-75
2021/08/23 05:19:42;;;;;;;32.38;10.93;;;;;;;;;;5052259;28;20056;-75
2021/08/23 05:22:07;;;;;;;50.35;13.00;;;;;;;;;;5052119;28;20044;-75
2021/08/23 05:24:32;;;;;;;44.97;12.38;;;;;;;;;;5052407;28;20025;-76
2021/08/23 05:26:58;;;;;;;50.95;13.60;;;;;;;;;;5052406;28;20084;-75
2021/08/23 05:29:23;;;;;;;42.10;13.80;;;;;;;;;;5054363;28;20029;-76
2021/08/23 05:31:48;;;;;;;38.78;11.57;;;;;;;;;;5056218;28;20443;-75
2021/08/23 05:34:13;;;;;;;58.17;13.68;;;;;;;;;;5055978;28;20040;-76
2021/08/23 05:36:39;;;;;;;43.60;12.07;;;;;;;;;;5055668;28;20029;-75
2021/08/23 05:39:04;;;;;;;36.90;11.98;;;;;;;;;;5055955;28;20017;-75
2021/08/23 05:41:31;;;;;;;41.72;13.57;;;;;;;;;;5055634;28;20147;-75
2021/08/23 05:43:57;;;;;;;49.88;12.75;;;;;;;;;;5055817;28;20043;-75
2021/08/23 05:46:22;;;;;;;36.70;10.98;;;;;;;;;;5056115;28;20476;-75
2021/08/23 05:48:48;;;;;;;37.20;12.60;;;;;;;;;;5055514;28;20040;-75
2021/08/23 05:51:14;;;;;;;40.47;12.63;;;;;;;;;;5056085;28;20033;-75
2021/08/23 05:53:43;;;;;;;43.03;12.65;;;;;;;;;;5055640;28;20125;-76
2021/08/23 05:56:08;;;;;;;48.72;13.65;;;;;;;;;;5055637;28;20147;-75
2021/08/23 05:58:34;;;;;;;32.45;10.90;;;;;;;;;;5055416;28;20044;-75
2021/08/23 06:00:59;;;;;;;27.73;10.70;;;;;;;;;;5037695;28;20027;-75
2021/08/23 06:03:24;;;;;;;40.97;10.25;;;;;;;;;;5055317;28;20033;-75
2021/08/23 06:05:50;;;;;;;35.17;11.40;;;;;;;;;;5055603;28;20478;-75
2021/08/23 06:08:15;;;;;;;32.22;10.65;;;;;;;;;;5055380;28;20027;-75
2021/08/23 06:10:41;;;;;;;44.13;12.85;;;;;;;;;;5055370;28;20374;-75
2021/08/23 06:13:06;;;;;;;58.63;13.52;;;;;;;;;;5055204;28;20453;-77
2021/08/23 06:15:31;;;;;;;37.83;11.77;;;;;;;;;;5055213;28;20097;-75
2021/08/23 06:17:56;;;;;;;41.35;11.57;;;;;;;;;;5055000;28;20439;-75
2021/08/23 06:20:22;;;;;;;29.02;10.93;;;;;;;;;;5055379;28;20186;-76
2021/08/23 06:22:49;;;;;;;33.40;10.93;;;;;;;;;;5055048;28;20040;-76
2021/08/23 06:25:15;;;;;;;46.03;14.07;;;;;;;;;;5055302;28;20071;-75
2021/08/23 06:27:40;;;;;;;34.38;9.48;;;;;;;;;;5054637;28;20029;-76
2021/08/23 06:30:06;;;;;;;23.85;9.63;;;;;;;;;;5055036;28;20017;-76
2021/08/23 06:32:31;;;;;;;33.45;10.75;;;;;;;;;;5054526;28;20140;-75
2021/08/23 06:34:56;;;;;;;38.75;11.50;;;;;;;;;;5055303;28;20064;-75
2021/08/23 06:37:22;;;;;;;34.95;11.45;;;;;;;;;;5054603;28;20687;-75
2021/08/23 06:39:47;;;;;;;28.05;9.82;;;;;;;;;;5054388;28;20025;-75
2021/08/23 06:42:12;;;;;;;20.20;8.82;;;;;;;;;;5054795;28;20029;-75
2021/08/23 06:44:37;;;;;;;21.33;8.38;;;;;;;;;;5054430;28;20029;-77
2021/08/23 06:47:03;;;;;;;37.35;9.93;;;;;;;;;;5054316;28;20033;-77
2021/08/23 06:49:28;;;;;;;30.40;10.57;;;;;;;;;;5054163;28;20039;-75
2021/08/23 06:51:53;;;;;;;28.35;9.98;;;;;;;;;;5054551;28;20029;-76
2021/08/23 06:54:19;;;;;;;29.08;10.23;;;;;;;;;;5054400;28;20025;-78
2021/08/23 06:56:44;;;;;;;33.10;10.98;;;;;;;;;;5054440;28;20115;-76
2021/08/23 06:59:10;;;;;;;30.98;9.93;;;;;;;;;;5054330;28;20032;-77
2021/08/23 07:01:35;;;;;;;29.13;9.70;;;;;;;;;;5054205;28;20481;-76
2021/08/23 07:04:01;;;;;;;34.35;10.80;;;;;;;;;;5054199;28;20071;-76
2021/08/23 07:06:27;;;;;;;39.55;11.63;;;;;;;;;;5054346;28;20303;-76
2021/08/23 07:08:52;;;;;;;39.30;13.50;;;;;;;;;;5054177;28;20107;-75
2021/08/23 07:11:18;;;;;;;73.03;17.80;;;;;;;;;;5054195;28;20234;-75
2021/08/23 07:13:44;;;;;;;68.68;16.00;;;;;;;;;;5054003;28;20020;-76
2021/08/23 07:16:09;;;;;;;71.47;15.68;;;;;;;;;;5054118;28;20033;-74
2021/08/23 07:18:34;;;;;;;63.65;15.82;;;;;;;;;;5053752;28;20081;-74
2021/08/23 07:21:00;;;;;;;61.50;15.18;;;;;;;;;;5052932;28;20420;-74
2021/08/23 07:23:25;;;;;;;92.80;18.33;;;;;;;;;;5052516;28;20056;-74
2021/08/23 07:25:51;;;;;;;60.50;15.68;;;;;;;;;;5052840;28;20111;-75
2021/08/23 07:28:16;;;;;;;87.93;17.95;;;;;;;;;;5053352;28;20060;-74
2021/08/23 07:30:42;;;;;;;83.35;19.33;;;;;;;;;;5053524;28;20045;-77
2021/08/23 07:33:07;;;;;;;75.38;18.25;;;;;;;;;;5053708;28;20037;-75
2021/08/23 07:35:32;;;;;;;65.43;15.73;;;;;;;;;;5053798;28;20520;-75
2021/08/23 07:37:58;;;;;;;94.25;19.17;;;;;;;;;;5053490;28;20129;-75
2021/08/23 07:40:23;;;;;;;77.50;18.52;;;;;;;;;;5053781;28;20034;-75
2021/08/23 07:42:48;;;;;;;99.28;20.10;;;;;;;;;;5053129;28;20108;-75
2021/08/23 07:45:14;;;;;;;96.53;20.10;;;;;;;;;;5053634;28;20021;-75
2021/08/23 07:47:41;;;;;;;105.15;23.60;;;;;;;;;;5053469;28;20032;-76
2021/08/23 07:50:07;;;;;;;117.10;24.33;;;;;;;;;;5053426;28;20019;-75
2021/08/23 07:52:32;;;;;;;100.28;25.48;;;;;;;;;;5052817;28;20107;-75
2021/08/23 07:54:57;;;;;;;94.82;24.50;;;;;;;;;;5053255;28;20029;-75
2021/08/23 07:57:22;;;;;;;106.70;23.48;;;;;;;;;;5053391;28;20102;-75
2021/08/23 07:59:48;;;;;;;108.85;25.73;;;;;;;;;;5053180;28;20033;-76
2021/08/23 08:02:14;;;;;;;77.68;21.35;;;;;;;;;;5053035;28;20079;-76
2021/08/23 08:04:39;;;;;;;109.43;27.52;;;;;;;;;;5052307;28;20074;-75
2021/08/23 08:07:04;;;;;;;131.27;32.53;;;;;;;;;;5053116;28;20044;-75
2021/08/23 08:09:30;;;;;;;126.28;30.38;;;;;;;;;;5053058;28;20032;-74
2021/08/23 08:11:55;;;;;;;104.55;26.77;;;;;;;;;;5053455;28;20017;-76
2021/08/23 08:14:21;;;;;;;125.43;31.65;;;;;;;;;;5053086;28;20114;-75
2021/08/23 08:16:46;;;;;;;95.25;25.65;;;;;;;;;;5053129;28;20083;-75
2021/08/23 08:19:12;;;;;;;106.50;30.48;;;;;;;;;;5053044;28;20017;-74
2021/08/23 08:21:37;;;;;;;100.72;31.10;;;;;;;;;;5053152;28;20350;-74
2021/08/23 08:24:02;;;;;;;93.32;29.67;;;;;;;;;;5052847;28;20037;-75
2021/08/23 08:26:28;;;;;;;93.30;29.45;;;;;;;;;;5053028;28;20483;-75
2021/08/23 08:28:53;;;;;;;83.00;27.38;;;;;;;;;;5049139;28;20416;-77
2021/08/23 08:31:19;;;;;;;92.63;28.95;;;;;;;;;;5052315;28;20436;-75
2021/08/23 08:33:46;;;;;;;93.40;29.23;;;;;;;;;;5052422;28;20043;-75
2021/08/23 08:36:11;;;;;;;72.18;25.75;;;;;;;;;;5052748;28;20021;-74
2021/08/23 08:38:36;;;;;;;66.20;25.77;;;;;;;;;;5052494;28;20068;-75
2021/08/23 08:41:01;;;;;;;61.67;23.92;;;;;;;;;;5034588;28;20059;-77
2021/08/23 08:43:27;;;;;;;62.35;23.27;;;;;;;;;;5052889;28;20040;-76
2021/08/23 08:45:53;;;;;;;50.25;20.33;;;;;;;;;;5052748;28;20068;-75
2021/08/23 08:48:19;;;;;;;36.25;18.48;;;;;;;;;;5052565;28;20060;-75
2021/08/23 08:50:44;;;;;;;33.17;16.65;;;;;;;;;;5052609;28;20029;-75
2021/08/23 08:53:09;;;;;;;33.53;16.27;;;;;;;;;;5052519;28;20028;-75
2021/08/23 08:55:36;;;;;;;29.25;16.08;;;;;;;;;;5052721;28;20378;-75
2021/08/23 08:58:06;;;;;;;25.02;13.30;;;;;;;;;;5052188;28;20132;-75
2021/08/23 09:00:40;;;;;;;25.30;13.35;;;;;;;;;;5052247;28;20079;-75
2021/08/23 09:03:07;;;;;;;24.02;12.57;;;;;;;;;;5054194;28;20029;-76
2021/08/23 09:05:39;;;;;;;20.17;10.93;;;;;;;;;;5056073;28;20036;-75
2021/08/23 09:08:06;;;;;;;22.05;11.20;;;;;;;;;;5052689;28;20021;-78
2021/08/23 09:10:36;;;;;;;16.95;10.77;;;;;;;;;;5054505;28;20028;-75
2021/08/23 09:13:02;;;;;;;14.93;9.68;;;;;;;;;;5055593;28;20037;-75
2021/08/23 09:15:27;;;;;;;23.73;10.20;;;;;;;;;;5055631;28;20052;-75
2021/08/23 09:18:02;;;;;;;16.48;10.30;;;;;;;;;;5054975;28;20452;-75
2021/08/23 09:20:28;;;;;;;16.73;9.25;;;;;;;;;;5055379;28;20111;-75
2021/08/23 09:22:53;;;;;;;14.63;9.60;;;;;;;;;;5055289;28;20063;-75
2021/08/23 09:25:23;;;;;;;13.35;8.27;;;;;;;;;;5056092;28;20041;-75
2021/08/23 09:27:48;;;;;;;11.93;8.10;;;;;;;;;;5056006;28;20025;-75
2021/08/23 09:30:14;;;;;;;12.30;7.60;;;;;;;;;;5055154;28;20350;-75
2021/08/23 09:32:49;;;;;;;13.85;7.80;;;;;;;;;;5055588;28;20059;-76
2021/08/23 09:35:28;;;;;;;13.07;7.97;;;;;;;;;;5050747;28;20021;-76
2021/08/23 09:37:53;;;;;;;10.95;6.43;;;;;;;;;;5055095;28;20037;-75
2021/08/23 09:40:23;;;;;;;8.93;6.60;;;;;;;;;;5054889;28;20049;-76
2021/08/23 09:42:55;;;;;;;10.65;5.78;;;;;;;;;;5054895;28;20437;-75
2021/08/23 09:45:21;;;;;;;9.48;6.45;;;;;;;;;;5055191;28;20067;-76
2021/08/23 09:47:46;;;;;;;11.45;6.35;;;;;;;;;;5053927;28;20053;-75
2021/08/23 09:50:15;;;;;;;10.00;7.05;;;;;;;;;;5052381;28;20481;-76
2021/08/23 09:52:40;;;;;;;12.70;5.80;;;;;;;;;;5054482;28;20032;-75
2021/08/23 09:55:08;;;;;;;9.93;5.85;;;;;;;;;;5054895;28;20029;-75
2021/08/23 09:57:34;;;;;;;7.47;4.80;;;;;;;;;;5055116;28;20032;-76
2021/08/23 10:00:00;;;;;;;9.25;5.40;;;;;;;;;;5054755;28;20088;-75
2021/08/23 10:02:26;;;;;;;9.45;5.43;;;;;;;;;;5054906;28;20472;-76
2021/08/23 10:04:53;;;;;;;8.27;5.10;;;;;;;;;;5055051;28;20096;-76
2021/08/23 10:07:18;;;;;;;9.35;5.80;;;;;;;;;;5054940;28;20037;-75
2021/08/23 10:09:43;;;;;;;11.45;7.47;;;;;;;;;;5055139;28;20366;-76
2021/08/23 10:12:12;;;;;;;8.13;5.80;;;;;;;;;;5054571;28;20048;-75
2021/08/23 10:14:37;;;;;;;13.07;5.55;;;;;;;;;;5053860;28;20033;-77
2021/08/23 10:17:03;;;;;;;15.07;6.88;;;;;;;;;;5054748;28;20039;-76
2021/08/23 10:19:29;;;;;;;9.88;6.55;;;;;;;;;;5054680;28;20025;-76
2021/08/23 10:21:54;;;;;;;13.07;7.28;;;;;;;;;;5054890;28;20029;-76
2021/08/23 10:24:24;;;;;;;9.20;6.45;;;;;;;;;;5054783;28;20385;-75
2021/08/23 10:26:50;;;;;;;8.77;6.32;;;;;;;;;;5054113;28;20473;-75
2021/08/23 10:29:15;;;;;;;14.73;7.53;;;;;;;;;;5054776;28;20037;-75
2021/08/23 10:31:42;;;;;;;13.50;7.65;;;;;;;;;;5054612;28;20131;-75
2021/08/23 10:34:11;;;;;;;11.90;8.20;;;;;;;;;;5054380;28;20404;-75
2021/08/23 10:36:37;;;;;;;11.15;7.18;;;;;;;;;;5054504;28;20374;-75
2021/08/23 10:39:03;;;;;;;14.95;8.73;;;;;;;;;;5054510;28;20048;-76
2021/08/23 10:41:29;;;;;;;14.93;6.93;;;;;;;;;;5053882;28;20473;-75
2021/08/23 10:44:00;;;;;;;13.38;7.28;;;;;;;;;;5054363;28;20056;-77
2021/08/23 10:46:26;;;;;;;12.02;7.80;;;;;;;;;;5054608;28;20036;-76
2021/08/23 10:48:52;;;;;;;11.25;7.43;;;;;;;;;;5051024;28;20040;-75
2021/08/23 10:51:27;;;;;;;12.68;7.15;;;;;;;;;;5053073;28;20024;-76
2021/08/23 10:53:52;;;;;;;8.38;6.05;;;;;;;;;;5053998;28;20044;-76
2021/08/23 10:56:18;;;;;;;13.65;7.00;;;;;;;;;;5053172;28;20016;-76
2021/08/23 10:58:47;;;;;;;10.85;6.90;;;;;;;;;;5053145;28;20493;-77
2021/08/23 11:01:16;;;;;;;11.82;7.13;;;;;;;;;;5052612;28;20067;-76
2021/08/23 11:03:41;;;;;;;10.90;6.57;;;;;;;;;;5053082;28;20465;-76
2021/08/23 11:06:06;;;;;;;8.75;5.70;;;;;;;;;;5052975;28;20028;-77
2021/08/23 11:08:32;;;;;;;8.75;6.00;;;;;;;;;;5053139;28;20041;-77
2021/08/23 11:11:10;;;;;;;7.32;5.25;;;;;;;;;;5053171;28;20551;-76
2021/08/23 11:13:39;;;;;;;8.40;6.03;;;;;;;;;;5053146;28;20033;-76
2021/08/23 11:16:06;;;;;;;7.68;5.32;;;;;;;;;;5051858;28;20044;-79
2021/08/23 11:18:39;;;;;;;7.53;4.95;;;;;;;;;;5053329;28;20029;-78
2021/08/23 11:21:04;;;;;;;8.85;5.15;;;;;;;;;;5053509;28;20058;-76
2021/08/23 11:23:29;;;;;;;7.70;4.97;;;;;;;;;;5052417;28;20033;-76
2021/08/23 11:26:01;;;;;;;8.30;5.03;;;;;;;;;;5051695;28;20048;-77
2021/08/23 11:28:29;;;;;;;6.95;4.78;;;;;;;;;;5052505;28;20033;-77
2021/08/23 11:30:55;;;;;;;5.93;4.10;;;;;;;;;;5052430;28;20052;-79
2021/08/23 11:33:25;;;;;;;6.78;4.30;;;;;;;;;;5052927;28;20028;-77
2021/08/23 11:35:51;;;;;;;7.75;5.03;;;;;;;;;;5052368;28;20025;-77
2021/08/23 11:38:16;;;;;;;6.95;4.47;;;;;;;;;;5052234;28;20051;-78
2021/08/23 11:40:43;;;;;;;6.88;4.63;;;;;;;;;;5053267;28;20450;-77
2021/08/23 11:43:08;;;;;;;10.02;4.95;;;;;;;;;;5052690;28;20425;-77
2021/08/23 11:45:38;;;;;;;7.18;5.18;;;;;;;;;;5052494;28;20044;-77
2021/08/23 11:48:04;;;;;;;9.13;5.43;;;;;;;;;;5052203;28;20104;-77
2021/08/23 11:50:29;;;;;;;9.13;5.40;;;;;;;;;;5052572;28;20116;-78
2021/08/23 11:53:00;;;;;;;8.13;4.82;;;;;;;;;;5052368;28;20113;-77
2021/08/23 11:55:51;;;;;;;9.25;5.10;;;;;;;;;;5052781;28;20070;-77
2021/08/23 11:58:19;;;;;;;7.88;4.72;;;;;;;;;;5046354;28;20060;-77
2021/08/23 12:00:50;;;;;;;6.63;4.35;;;;;;;;;;5052153;28;20036;-77
2021/08/23 12:03:17;;;;;;;6.97;4.75;;;;;;;;;;5052417;28;20025;-76
2021/08/23 12:05:43;;;;;;;6.80;4.18;;;;;;;;;;5052557;28;20029;-77
2021/08/23 12:08:20;;;;;;;8.95;4.35;;;;;;;;;;5052253;28;20033;-77
2021/08/23 12:10:50;;;;;;;6.43;4.60;;;;;;;;;;5052966;28;20111;-77
2021/08/23 12:13:17;;;;;;;6.22;4.55;;;;;;;;;;5052653;28;20041;-77
2021/08/23 12:15:51;;;;;;;9.77;4.88;;;;;;;;;;5052855;28;20017;-77
2021/08/23 12:18:16;;;;;;;7.60;4.60;;;;;;;;;;5052768;28;20037;-76
2021/08/23 12:20:42;;;;;;;7.53;4.65;;;;;;;;;;5051780;28;20309;-77
2021/08/23 12:23:07;;;;;;;6.95;4.70;;;;;;;;;;5052140;28;20013;-77
2021/08/23 12:25:32;;;;;;;6.63;5.15;;;;;;;;;;5052581;28;20033;-76
2021/08/23 12:27:58;;;;;;;8.57;5.32;;;;;;;;;;5052277;28;20109;-76
2021/08/23 12:30:41;;;;;;;9.68;6.13;;;;;;;;;;5052331;28;20025;-78
2021/08/23 12:33:14;;;;;;;11.30;5.63;;;;;;;;;;5052406;28;20076;-77
2021/08/23 12:35:39;;;;;;;8.02;4.82;;;;;;;;;;5052841;28;20036;-77
2021/08/23 12:38:05;;;;;;;6.95;5.00;;;;;;;;;;5052157;28;20029;-76
2021/08/23 12:40:30;;;;;;;9.10;5.70;;;;;;;;;;5052196;28;20029;-77
2021/08/23 12:42:57;;;;;;;7.47;5.35;;;;;;;;;;5052189;28;20051;-79
2021/08/23 12:45:23;;;;;;;8.40;4.80;;;;;;;;;;5052406;28;20477;-76
2021/08/23 12:47:48;;;;;;;7.63;5.40;;;;;;;;;;5052667;28;20071;-77
2021/08/23 12:50:14;;;;;;;7.45;5.50;;;;;;;;;;5052202;28;20052;-77
2021/08/23 12:52:39;;;;;;;8.10;5.20;;;;;;;;;;5052756;28;20021;-77
2021/08/23 12:55:04;;;;;;;8.70;5.80;;;;;;;;;;5034202;28;20033;-76
2021/08/23 12:57:30;;;;;;;8.65;5.65;;;;;;;;;;5052816;28;20474;-77
2021/08/23 12:59:55;;;;;;;10.63;5.22;;;;;;;;;;5052221;28;20032;-77
2021/08/23 13:02:21;;;;;;;6.60;5.00;;;;;;;;;;5052369;28;20047;-77
2021/08/23 13:04:47;;;;;;;8.27;4.88;;;;;;;;;;5052375;28;20040;-76
2021/08/23 13:07:12;;;;;;;8.98;5.18;;;;;;;;;;5052450;28;20369;-77
2021/08/23 13:09:37;;;;;;;8.63;5.68;;;;;;;;;;5052369;28;20052;-77
2021/08/23 13:12:03;;;;;;;7.13;5.15;;;;;;;;;;5052449;28;20032;-77
2021/08/23 13:14:28;;;;;;;8.07;5.13;;;;;;;;;;5052413;28;20021;-76
2021/08/23 13:16:53;;;;;;;6.32;4.88;;;;;;;;;;5052313;28;20025;-76
2021/08/23 13:19:18;;;;;;;7.22;5.57;;;;;;;;;;5051914;28;20454;-77
2021/08/23 13:21:44;;;;;;;9.57;5.95;;;;;;;;;;5052415;28;20021;-76
2021/08/23 13:24:09;;;;;;;8.80;5.50;;;;;;;;;;5052034;28;20033;-77
2021/08/23 13:26:34;;;;;;;7.20;5.35;;;;;;;;;;5052484;28;20350;-78
2021/08/23 13:29:00;;;;;;;10.70;5.40;;;;;;;;;;5052049;28;20103;-76
2021/08/23 13:31:27;;;;;;;7.38;5.43;;;;;;;;;;5052205;28;20075;-77
2021/08/23 13:33:53;;;;;;;7.22;5.05;;;;;;;;;;5051441;28;20529;-77
2021/08/23 13:36:18;;;;;;;6.97;4.88;;;;;;;;;;5048743;28;20121;-77
2021/08/23 13:38:43;;;;;;;8.77;5.50;;;;;;;;;;5051363;28;20045;-76
2021/08/23 13:41:09;;;;;;;7.10;4.57;;;;;;;;;;5051721;28;20115;-77
2021/08/23 13:43:34;;;;;;;7.47;4.75;;;;;;;;;;5051360;28;20059;-77
2021/08/23 13:45:59;;;;;;;6.15;4.38;;;;;;;;;;5050917;28;20059;-77
2021/08/23 13:48:24;;;;;;;6.63;5.10;;;;;;;;;;5051951;28;20033;-77
2021/08/23 13:50:50;;;;;;;5.55;4.20;;;;;;;;;;5053618;28;20017;-78
2021/08/23 13:53:15;;;;;;;8.60;5.43;;;;;;;;;;5055128;28;20648;-77
2021/08/23 13:55:41;;;;;;;6.78;4.75;;;;;;;;;;5054903;28;20089;-77
2021/08/23 13:58:06;;;;;;;11.57;5.38;;;;;;;;;;5054700;28;20095;-77
2021/08/23 14:00:32;;;;;;;8.27;5.22;;;;;;;;;;5054583;28;20384;-77
2021/08/23 14:02:57;;;;;;;7.63;5.10;;;;;;;;;;5054599;28;20381;-77
2021/08/23 14:05:23;;;;;;;7.22;5.18;;;;;;;;;;5053882;28;20064;-77
2021/08/23 14:07:48;;;;;;;7.10;5.00;;;;;;;;;;5055545;28;20044;-77
2021/08/23 14:10:15;;;;;;;8.70;5.00;;;;;;;;;;5055365;28;20083;-77
2021/08/23 14:12:40;;;;;;;7.65;4.97;;;;;;;;;;5055101;28;20017;-77
2021/08/23 14:15:07;;;;;;;6.32;4.78;;;;;;;;;;5055105;28;20112;-76
2021/08/23 14:17:32;;;;;;;6.57;4.22;;;;;;;;;;5055870;28;20040;-77
2021/08/23 14:19:58;;;;;;;7.22;4.43;;;;;;;;;;5054785;28;20037;-77
2021/08/23 14:22:23;;;;;;;6.57;3.97;;;;;;;;;;5055417;28;20024;-77